createdAt,value
2018-02-04T00:02:25.186Z,91947
2018-02-04T00:04:51.541Z,91956
2018-02-04T00:07:18.013Z,91974
2018-02-04T00:09:44.432Z,91961
2018-02-04T00:12:11.203Z,91962
2018-02-04T00:14:37.749Z,91954
2018-02-04T00:17:04.322Z,91967
2018-02-04T00:19:30.808Z,91971
2018-02-04T00:21:57.258Z,91975
2018-02-04T00:24:23.591Z,91982
2018-02-04T00:26:49.891Z,91988
2018-02-04T00:29:16.166Z,91995
2018-02-04T00:31:42.413Z,92001
2018-02-04T00:34:08.729Z,92007
2018-02-04T00:36:35.027Z,92017
2018-02-04T00:39:01.319Z,92017
2018-02-04T00:41:27.586Z,92031
2018-02-04T00:43:53.875Z,92025
2018-02-04T00:46:20.134Z,92030
2018-02-04T00:48:46.383Z,92026
2018-02-04T00:51:13.014Z,92017
2018-02-04T00:53:39.255Z,92010
2018-02-04T00:56:05.510Z,91999
2018-02-04T00:58:31.799Z,92002
2018-02-04T01:00:58.065Z,91993
2018-02-04T01:03:24.440Z,91988
2018-02-04T01:05:50.720Z,91990
2018-02-04T01:08:17.012Z,91993
2018-02-04T01:10:43.267Z,92002
2018-02-04T01:13:09.700Z,92006
2018-02-04T01:15:35.948Z,91989
2018-02-04T01:18:02.220Z,91976
2018-02-04T01:20:28.542Z,92001
2018-02-04T01:22:54.829Z,92003
2018-02-04T01:25:21.076Z,92004
2018-02-04T01:27:47.356Z,92009
2018-02-04T01:30:13.574Z,92010
2018-02-04T01:32:39.885Z,92015
2018-02-04T01:35:06.267Z,92023
2018-02-04T01:37:32.506Z,92030
2018-02-04T01:39:58.887Z,92041
2018-02-04T01:42:25.188Z,92052
2018-02-04T01:44:51.425Z,92038
2018-02-04T01:47:17.676Z,92049
2018-02-04T01:49:44.066Z,92054
2018-02-04T01:52:10.285Z,92046
2018-02-04T01:54:36.627Z,92055
2018-02-04T01:57:03.000Z,92051
2018-02-04T01:59:29.226Z,92056
2018-02-04T02:01:55.549Z,92050
2018-02-04T02:04:22.098Z,92063
2018-02-04T02:06:48.431Z,92068
2018-02-04T02:09:14.630Z,92074
2018-02-04T02:11:40.917Z,92069
2018-02-04T02:14:07.165Z,92064
2018-02-04T02:16:33.391Z,92072
2018-02-04T02:18:59.656Z,92069
2018-02-04T02:21:25.861Z,92071
2018-02-04T02:23:52.191Z,92066
2018-02-04T02:26:18.528Z,92072
2018-02-04T02:28:44.779Z,92083
2018-02-04T02:31:11.013Z,92073
2018-02-04T02:33:37.381Z,92078
2018-02-04T02:36:03.634Z,92068
2018-02-04T02:38:29.896Z,92073
2018-02-04T02:40:56.241Z,92087
2018-02-04T02:43:22.537Z,92096
2018-02-04T02:45:48.844Z,92101
2018-02-04T02:48:15.129Z,92099
2018-02-04T02:50:41.379Z,92107
2018-02-04T02:53:07.710Z,92122
2018-02-04T02:55:34.084Z,92109
2018-02-04T02:58:00.370Z,92115
2018-02-04T03:00:26.604Z,92111
2018-02-04T03:02:52.923Z,92126
2018-02-04T03:05:19.159Z,92109
2018-02-04T03:07:45.389Z,92131
2018-02-04T03:10:11.674Z,92125
2018-02-04T03:12:38.004Z,92120
2018-02-04T03:15:04.317Z,92118
2018-02-04T03:17:30.650Z,92139
2018-02-04T03:19:56.958Z,92130
2018-02-04T03:22:23.263Z,92140
2018-02-04T03:24:49.672Z,92145
2018-02-04T03:27:15.894Z,92154
2018-02-04T03:29:42.136Z,92143
2018-02-04T03:32:08.433Z,92151
2018-02-04T03:34:34.789Z,92164
2018-02-04T03:37:01.002Z,92159
2018-02-04T03:39:27.300Z,92153
2018-02-04T03:41:53.525Z,92162
2018-02-04T03:44:19.787Z,92162
2018-02-04T03:46:46.129Z,92169
2018-02-04T03:49:12.422Z,92168
2018-02-04T03:51:38.682Z,92164
2018-02-04T03:54:05.082Z,92160
2018-02-04T03:56:31.336Z,92163
2018-02-04T03:58:57.573Z,92163
2018-02-04T04:01:23.959Z,92168
2018-02-04T04:03:50.333Z,92180
2018-02-04T04:06:16.577Z,92183
2018-02-04T04:08:42.866Z,92194
2018-02-04T04:11:09.124Z,92200
2018-02-04T04:13:35.492Z,92196
2018-02-04T04:16:01.817Z,92201
2018-02-04T04:18:28.082Z,92198
2018-02-04T04:20:54.411Z,92191
2018-02-04T04:23:20.704Z,92182
2018-02-04T04:25:46.958Z,92175
2018-02-04T04:28:13.322Z,92183
2018-02-04T04:30:39.597Z,92174
2018-02-04T04:33:05.916Z,92159
2018-02-04T04:35:32.160Z,92160
2018-02-04T04:37:58.480Z,92169
2018-02-04T04:40:24.721Z,92173
2018-02-04T04:42:51.061Z,92176
2018-02-04T04:45:17.295Z,92181
2018-02-04T04:47:43.652Z,92180
2018-02-04T04:50:09.923Z,92178
2018-02-04T04:52:36.312Z,92178
2018-02-04T04:55:02.587Z,92192
2018-02-04T04:57:28.854Z,92186
2018-02-04T04:59:55.219Z,92189
2018-02-04T05:02:21.588Z,92194
2018-02-04T05:04:48.077Z,92192
2018-02-04T05:07:14.440Z,92199
2018-02-04T05:09:40.813Z,92201
2018-02-04T05:12:07.145Z,92198
2018-02-04T05:14:33.558Z,92201
2018-02-04T05:16:59.888Z,92204
2018-02-04T05:19:26.181Z,92205
2018-02-04T05:21:52.460Z,92202
2018-02-04T05:24:18.745Z,92199
2018-02-04T05:26:45.044Z,92216
2018-02-04T05:29:11.419Z,92218
2018-02-04T05:31:37.912Z,92215
2018-02-04T05:34:04.212Z,92227
2018-02-04T05:36:30.676Z,92232
2018-02-04T05:38:56.976Z,92237
2018-02-04T05:41:23.192Z,92242
2018-02-04T05:43:49.697Z,92253
2018-02-04T05:46:16.008Z,92253
2018-02-04T05:48:42.325Z,92260
2018-02-04T05:51:08.663Z,92253
2018-02-04T05:53:34.972Z,92249
2018-02-04T05:56:01.240Z,92261
2018-02-04T05:58:27.575Z,92283
2018-02-04T06:00:53.845Z,92282
2018-02-04T06:03:20.191Z,92292
2018-02-04T06:05:46.440Z,92286
2018-02-04T06:08:12.704Z,92291
2018-02-04T06:10:38.970Z,92293
2018-02-04T06:13:05.616Z,92288
2018-02-04T06:15:31.872Z,92291
2018-02-04T06:17:58.122Z,92292
2018-02-04T06:20:24.946Z,92298
2018-02-04T06:22:51.347Z,92294
2018-02-04T06:25:18.425Z,92291
2018-02-04T06:27:44.748Z,92298
2018-02-04T06:30:11.017Z,92294
2018-02-04T06:32:37.392Z,92300
2018-02-04T06:35:03.781Z,92294
2018-02-04T06:37:30.105Z,92298
2018-02-04T06:39:56.382Z,92303
2018-02-04T06:42:22.684Z,92308
2018-02-04T06:44:49.076Z,92303
2018-02-04T06:47:15.353Z,92307
2018-02-04T06:49:41.637Z,92315
2018-02-04T06:52:07.911Z,92318
2018-02-04T06:54:34.284Z,92325
2018-02-04T06:57:00.777Z,92326
2018-02-04T06:59:27.061Z,92317
2018-02-04T07:01:53.459Z,92315
2018-02-04T07:04:19.906Z,92316
2018-02-04T07:06:46.412Z,92311
2018-02-04T07:09:12.675Z,92320
2018-02-04T07:11:39.165Z,92327
2018-02-04T07:14:05.658Z,92314
2018-02-04T07:16:32.116Z,92329
2018-02-04T07:18:59.035Z,92322
2018-02-04T07:21:25.639Z,92319
2018-02-04T07:23:53.046Z,92331
2018-02-04T07:26:19.438Z,92329
2018-02-04T07:28:45.704Z,92337
2018-02-04T07:31:11.963Z,92354
2018-02-04T07:33:38.499Z,92351
2018-02-04T07:36:05.020Z,92350
2018-02-04T07:38:31.846Z,92362
2018-02-04T07:40:58.353Z,92368
2018-02-04T07:43:24.834Z,92367
2018-02-04T07:45:51.526Z,92363
2018-02-04T07:48:18.186Z,92371
2018-02-04T07:50:45.003Z,92365
2018-02-04T07:53:12.070Z,92365
2018-02-04T07:55:39.650Z,92358
2018-02-04T07:58:06.715Z,92364
2018-02-04T08:00:35.065Z,92370
2018-02-04T08:03:02.756Z,92374
2018-02-04T08:05:29.388Z,92365
2018-02-04T08:07:57.288Z,92383
2018-02-04T08:10:24.227Z,92397
2018-02-04T08:12:51.269Z,92395
2018-02-04T08:15:18.174Z,92386
2018-02-04T08:17:44.828Z,92373
2018-02-04T08:20:11.802Z,92375
2018-02-04T08:22:38.371Z,92384
2018-02-04T08:25:04.872Z,92390
2018-02-04T08:27:31.413Z,92395
2018-02-04T08:29:58.977Z,92395
2018-02-04T08:32:26.158Z,92404
2018-02-04T08:34:53.036Z,92408
2018-02-04T08:37:19.467Z,92406
2018-02-04T08:39:46.286Z,92412
2018-02-04T08:42:12.615Z,92415
2018-02-04T08:44:39.066Z,92422
2018-02-04T08:47:06.798Z,92434
2018-02-04T08:49:33.413Z,92431
2018-02-04T08:51:59.956Z,92422
2018-02-04T08:54:26.657Z,92427
2018-02-04T09:02:56.512Z,92399
2018-02-04T09:09:16.976Z,92405
2018-02-04T09:11:43.427Z,92420
2018-02-04T09:14:09.840Z,92418
2018-02-04T09:16:36.474Z,92417
2018-02-04T09:19:03.071Z,92422
2018-02-04T09:21:30.108Z,92427
2018-02-04T09:23:57.748Z,92432
2018-02-04T09:26:24.910Z,92436
2018-02-04T09:28:51.831Z,92430
2018-02-04T09:31:18.882Z,92428
2018-02-04T09:33:45.782Z,92423
2018-02-04T09:36:12.294Z,92429
2018-02-04T09:38:39.285Z,92427
2018-02-04T09:41:05.884Z,92429
2018-02-04T09:43:33.127Z,92436
2018-02-04T09:45:59.917Z,92439
2018-02-04T09:48:26.718Z,92438
2018-02-04T09:53:26.606Z,92436
2018-02-04T09:55:52.881Z,92449
2018-02-04T09:58:19.476Z,92448
2018-02-04T10:00:47.756Z,92432
2018-02-04T10:03:14.340Z,92443
2018-02-04T10:05:41.102Z,92436
2018-02-04T10:08:07.729Z,92429
2018-02-04T10:10:34.723Z,92417
2018-02-04T10:13:01.622Z,92416
2018-02-04T10:15:28.657Z,92419
2018-02-04T10:17:55.927Z,92410
2018-02-04T10:20:22.913Z,92406
2018-02-04T10:22:50.922Z,92403
2018-02-04T10:25:17.349Z,92408
2018-02-04T10:27:44.839Z,92401
2018-02-04T10:30:12.878Z,92402
2018-02-04T10:32:39.810Z,92401
2018-02-04T10:35:07.776Z,92402
2018-02-04T10:37:34.647Z,92411
2018-02-04T10:40:04.339Z,92400
2018-02-04T10:42:31.374Z,92395
2018-02-04T10:44:58.524Z,92390
2018-02-04T10:47:26.464Z,92382
2018-02-04T10:49:53.587Z,92394
2018-02-04T10:52:21.759Z,92376
2018-02-04T10:54:50.071Z,92374
2018-02-04T10:57:17.078Z,92368
2018-02-04T10:59:49.976Z,92346
2018-02-04T11:02:18.043Z,92352
2018-02-04T11:04:46.682Z,92352
2018-02-04T11:07:15.106Z,92352
2018-02-04T11:09:42.664Z,92342
2018-02-04T11:12:10.863Z,92343
2018-02-04T11:14:39.840Z,92342
2018-02-04T11:17:07.843Z,92363
2018-02-04T11:19:37.724Z,92370
2018-02-04T11:22:06.452Z,92378
2018-02-04T11:24:34.712Z,92382
2018-02-04T11:27:02.436Z,92395
2018-02-04T11:29:29.448Z,92395
2018-02-04T11:31:56.989Z,92406
2018-02-04T11:34:24.669Z,92416
2018-02-04T11:36:52.130Z,92405
2018-02-04T11:39:20.268Z,92419
2018-02-04T11:41:47.462Z,92415
2018-02-04T11:44:15.049Z,92413
2018-02-04T11:46:43.137Z,92409
2018-02-04T11:49:12.167Z,92411
2018-02-04T11:51:40.785Z,92403
2018-02-04T11:54:08.278Z,92405
2018-02-04T11:56:36.843Z,92405
2018-02-04T11:59:05.156Z,92398
2018-02-04T12:01:32.801Z,92409
2018-02-04T12:04:00.074Z,92411
2018-02-04T12:06:28.440Z,92408
2018-02-04T12:08:56.574Z,92406
2018-02-04T12:11:26.615Z,92414
2018-02-04T12:13:54.623Z,92415
2018-02-04T12:16:21.903Z,92407
2018-02-04T12:18:49.641Z,92413
2018-02-04T12:21:16.559Z,92403
2018-02-04T12:23:43.998Z,92414
2018-02-04T12:26:12.027Z,92408
2018-02-04T12:28:39.292Z,92408
2018-02-04T12:31:07.004Z,92403
2018-02-04T12:33:34.441Z,92410
2018-02-04T12:36:00.950Z,92412
2018-02-04T12:38:28.010Z,92419
2018-02-04T12:40:54.648Z,92411
2018-02-04T12:43:21.596Z,92410
2018-02-04T12:45:48.218Z,92410
2018-02-04T12:48:14.796Z,92410
2018-02-04T12:50:41.402Z,92418
2018-02-04T12:53:08.327Z,92428
2018-02-04T12:55:34.891Z,92424
2018-02-04T12:58:01.298Z,92431
2018-02-04T13:00:28.200Z,92430
2018-02-04T13:02:54.742Z,92438
2018-02-04T13:05:21.192Z,92439
2018-02-04T13:07:47.772Z,92436
2018-02-04T13:10:14.361Z,92433
2018-02-04T13:12:40.729Z,92450
2018-02-04T13:15:07.296Z,92447
2018-02-04T13:17:34.469Z,92454
2018-02-04T13:20:01.646Z,92456
2018-02-04T13:22:29.395Z,92461
2018-02-04T13:24:57.014Z,92463
2018-02-04T13:27:23.967Z,92461
2018-02-04T13:29:51.140Z,92453
2018-02-04T13:32:18.567Z,92476
2018-02-04T13:34:46.799Z,92479
2018-02-04T13:37:14.032Z,92461
2018-02-04T13:39:40.998Z,92472
2018-02-04T13:42:09.150Z,92472
2018-02-04T13:44:36.104Z,92474
2018-02-04T13:47:02.833Z,92464
2018-02-04T13:49:32.892Z,92474
2018-02-04T13:52:02.739Z,92469
2018-02-04T13:54:29.314Z,92472
2018-02-04T13:56:56.554Z,92480
2018-02-04T13:59:23.226Z,92478
2018-02-04T14:01:49.841Z,92493
2018-02-04T14:04:16.449Z,92497
2018-02-04T14:06:44.999Z,92503
2018-02-04T14:09:11.658Z,92509
2018-02-04T14:11:38.384Z,92517
2018-02-04T14:14:05.361Z,92516
2018-02-04T14:16:32.045Z,92513
2018-02-04T14:18:58.729Z,92519
2018-02-04T14:21:25.623Z,92526
2018-02-04T14:23:53.143Z,92530
2018-02-04T14:26:21.121Z,92535
2018-02-04T14:28:50.177Z,92544
2018-02-04T14:31:18.625Z,92555
2018-02-04T14:33:47.576Z,92555
2018-02-04T14:36:17.501Z,92561
2018-02-04T14:38:47.060Z,92561
2018-02-04T14:41:15.497Z,92571
2018-02-04T14:43:43.724Z,92564
2018-02-04T14:46:12.528Z,92577
2018-02-04T14:48:41.607Z,92581
2018-02-04T14:51:10.521Z,92588
2018-02-04T14:53:37.784Z,92596
2018-02-04T14:56:04.843Z,92601
2018-02-04T14:58:32.671Z,92611
2018-02-04T15:01:00.177Z,92617
2018-02-04T15:03:29.991Z,92631
2018-02-04T15:05:57.336Z,92631
2018-02-04T15:08:27.073Z,92639
2018-02-04T15:11:00.619Z,92645
2018-02-04T15:13:28.397Z,92650
2018-02-04T15:15:56.923Z,92654
2018-02-04T15:18:24.305Z,92662
2018-02-04T15:20:52.167Z,92667
2018-02-04T15:23:19.343Z,92673
2018-02-04T15:25:46.871Z,92691
2018-02-04T15:28:15.706Z,92691
2018-02-04T15:30:42.920Z,92691
2018-02-04T15:33:10.091Z,92705
2018-02-04T15:35:38.000Z,92703
2018-02-04T15:38:04.878Z,92721
2018-02-04T15:40:31.839Z,92721
2018-02-04T15:43:00.987Z,92731
2018-02-04T15:45:29.849Z,92741
2018-02-04T15:47:58.749Z,92752
2018-02-04T15:50:26.496Z,92758
2018-02-04T15:52:55.139Z,92756
2018-02-04T15:55:23.335Z,92756
2018-02-04T15:57:50.178Z,92766
2018-02-04T16:00:17.161Z,92768
2018-02-04T16:02:43.998Z,92777
2018-02-04T16:05:11.891Z,92779
2018-02-04T16:07:39.867Z,92791
2018-02-04T16:10:06.836Z,92799
2018-02-04T16:12:35.615Z,92809
2018-02-04T16:15:05.285Z,92817
2018-02-04T16:17:32.494Z,92819
2018-02-04T16:20:01.171Z,92830
2018-02-04T16:22:28.405Z,92843
2018-02-04T16:24:55.324Z,92849
2018-02-04T16:27:22.819Z,92858
2018-02-04T16:29:49.515Z,92867
2018-02-04T16:32:16.225Z,92873
2018-02-04T16:34:46.531Z,92876
2018-02-04T16:37:14.361Z,92886
2018-02-04T16:39:41.463Z,92877
2018-02-04T16:42:08.153Z,92884
2018-02-04T16:44:34.898Z,92883
2018-02-04T16:47:04.549Z,92897
2018-02-04T16:49:31.562Z,92911
2018-02-04T16:51:58.413Z,92906
2018-02-04T16:54:31.017Z,92904
2018-02-04T16:56:58.505Z,92906
2018-02-04T16:59:26.700Z,92918
2018-02-04T17:01:53.898Z,92910
2018-02-04T17:04:21.639Z,92911
2018-02-04T17:06:48.562Z,92922
2018-02-04T17:09:15.120Z,92930
2018-02-04T17:11:41.749Z,92941
2018-02-04T17:14:08.304Z,92949
2018-02-04T17:16:35.040Z,92952
2018-02-04T17:19:01.652Z,92956
2018-02-04T17:21:29.060Z,92952
2018-02-04T17:23:58.505Z,92958
2018-02-04T17:26:25.499Z,92964
2018-02-04T17:28:52.169Z,92975
2018-02-04T17:31:19.492Z,92985
2018-02-04T17:33:47.037Z,92989
2018-02-04T17:36:14.301Z,92985
2018-02-04T17:38:41.351Z,92976
2018-02-04T17:41:08.945Z,92978
2018-02-04T17:43:36.547Z,92991
2018-02-04T17:46:03.925Z,93004
2018-02-04T17:48:30.496Z,93006
2018-02-04T17:50:57.417Z,93023
2018-02-04T17:53:24.136Z,93016
2018-02-04T17:55:54.207Z,93023
2018-02-04T17:58:21.636Z,93030
2018-02-04T18:00:49.082Z,93025
2018-02-04T18:03:16.651Z,93024
2018-02-04T18:05:44.362Z,93022
2018-02-04T18:08:12.279Z,93032
2018-02-04T18:10:39.390Z,93034
2018-02-04T18:13:06.549Z,93022
2018-02-04T18:15:33.432Z,93021
2018-02-04T18:18:00.526Z,93023
2018-02-04T18:20:27.490Z,93032
2018-02-04T18:22:54.692Z,93041
2018-02-04T18:25:21.490Z,93035
2018-02-04T18:27:48.360Z,93041
2018-02-04T18:30:15.066Z,93034
2018-02-04T18:32:41.678Z,93032
2018-02-04T18:35:09.664Z,93034
2018-02-04T18:37:36.854Z,93036
2018-02-04T18:40:03.596Z,93042
2018-02-04T18:42:30.095Z,93043
2018-02-04T18:44:58.071Z,93043
2018-02-04T18:47:24.909Z,93043
2018-02-04T18:49:51.839Z,93053
2018-02-04T18:52:19.136Z,93038
2018-02-04T18:54:46.095Z,93053
2018-02-04T18:57:13.964Z,93050
2018-02-04T18:59:43.952Z,93044
2018-02-04T19:02:11.499Z,93047
2018-02-04T19:04:38.837Z,93059
2018-02-04T19:07:06.470Z,93063
2018-02-04T19:09:36.804Z,93062
2018-02-04T19:12:05.774Z,93054
2018-02-04T19:14:32.866Z,93065
2018-02-04T19:17:00.111Z,93059
2018-02-04T19:19:28.087Z,93070
2018-02-04T19:21:55.955Z,93071
2018-02-04T19:24:27.805Z,93060
2018-02-04T19:26:57.315Z,93067
2018-02-04T19:29:25.036Z,93072
2018-02-04T19:31:52.202Z,93087
2018-02-04T19:34:20.558Z,93089
2018-02-04T19:36:48.886Z,93089
2018-02-04T19:39:17.473Z,93087
2018-02-04T19:41:46.048Z,93094
2018-02-04T19:44:13.630Z,93090
2018-02-04T19:46:43.545Z,93095
2018-02-04T19:49:10.621Z,93090
2018-02-04T19:51:38.689Z,93090
2018-02-04T19:54:06.117Z,93091
2018-02-04T19:56:33.668Z,93100
2018-02-04T19:59:03.500Z,93103
2018-02-04T20:01:32.611Z,93107
2018-02-04T20:04:02.373Z,93113
2018-02-04T20:06:30.455Z,93125
2018-02-04T20:08:58.735Z,93122
2018-02-04T20:11:26.190Z,93126
2018-02-04T20:13:53.945Z,93127
2018-02-04T20:16:21.366Z,93129
2018-02-04T20:18:48.927Z,93126
2018-02-04T20:21:16.585Z,93147
2018-02-04T20:23:45.915Z,93151
2018-02-04T20:26:13.057Z,93153
2018-02-04T20:28:39.913Z,93157
2018-02-04T20:31:07.834Z,93157
2018-02-04T20:33:46.979Z,93163
2018-02-04T20:36:13.970Z,93159
2018-02-04T20:38:41.647Z,93159
2018-02-04T20:41:08.161Z,93170
2018-02-04T20:43:34.691Z,93176
2018-02-04T20:46:01.257Z,93170
2018-02-04T20:48:27.969Z,93176
2018-02-04T20:50:54.902Z,93180
2018-02-04T20:53:21.810Z,93174
2018-02-04T20:55:49.536Z,93186
2018-02-04T20:58:16.492Z,93176
2018-02-04T21:00:43.157Z,93181
2018-02-04T21:03:09.856Z,93189
2018-02-04T21:05:41.208Z,93187
2018-02-04T21:08:07.723Z,93194
2018-02-04T21:10:34.251Z,93202
2018-02-04T21:13:00.781Z,93195
2018-02-04T21:15:27.327Z,93205
2018-02-04T21:17:53.929Z,93200
2018-02-04T21:20:20.628Z,93199
2018-02-04T21:22:47.133Z,93208
2018-02-04T21:25:13.641Z,93209
2018-02-04T21:27:40.157Z,93215
2018-02-04T21:30:06.756Z,93220
2018-02-04T21:32:33.288Z,93226
2018-02-04T21:34:59.788Z,93229
2018-02-04T21:37:27.188Z,93243
2018-02-04T21:39:53.712Z,93252
2018-02-04T21:42:20.221Z,93246
2018-02-04T21:44:47.342Z,93247
2018-02-04T21:47:14.045Z,93251
2018-02-04T21:49:40.519Z,93254
2018-02-04T21:52:07.071Z,93257
2018-02-04T21:54:33.600Z,93263
2018-02-04T21:56:59.996Z,93269
2018-02-04T21:59:26.641Z,93265
2018-02-04T22:01:53.202Z,93275
2018-02-04T22:04:19.954Z,93272
2018-02-04T22:06:46.553Z,93280
2018-02-04T22:09:13.045Z,93282
2018-02-04T22:11:40.889Z,93281
2018-02-04T22:14:07.479Z,93294
2018-02-04T22:16:34.225Z,93283
2018-02-04T22:19:00.796Z,93289
2018-02-04T22:21:27.326Z,93291
2018-02-04T22:23:53.829Z,93288
2018-02-04T22:26:20.339Z,93296
2018-02-04T22:28:46.830Z,93294
2018-02-04T22:31:13.267Z,93294
2018-02-04T22:33:39.657Z,93294
2018-02-04T22:36:06.084Z,93294
2018-02-04T22:38:32.529Z,93300
2018-02-04T22:40:58.986Z,93302
2018-02-04T22:43:25.458Z,93305
2018-02-04T22:45:53.006Z,93302
2018-02-04T22:48:19.491Z,93302
2018-02-04T22:50:45.961Z,93307
2018-02-04T22:53:12.557Z,93299
2018-02-04T22:55:44.887Z,93303
2018-02-04T22:58:11.290Z,93300
2018-02-04T23:00:37.739Z,93305
2018-02-04T23:03:04.205Z,93311
2018-02-04T23:05:31.686Z,93304
2018-02-04T23:07:58.047Z,93306
2018-02-04T23:10:24.577Z,93301
2018-02-04T23:12:51.023Z,93297
2018-02-04T23:15:18.536Z,93300
2018-02-04T23:17:44.966Z,93302
2018-02-04T23:20:11.565Z,93308
2018-02-04T23:22:38.026Z,93315
2018-02-04T23:25:04.512Z,93311
2018-02-04T23:27:30.993Z,93325
2018-02-04T23:29:57.539Z,93331
2018-02-04T23:32:23.941Z,93331
2018-02-04T23:34:57.628Z,93338
2018-02-04T23:37:24.054Z,93328
2018-02-04T23:39:50.435Z,93334
2018-02-04T23:42:16.851Z,93333
2018-02-04T23:44:43.446Z,93330
2018-02-04T23:47:09.843Z,93338
2018-02-04T23:49:36.263Z,93330
2018-02-04T23:52:02.635Z,93336
2018-02-04T23:54:29.079Z,93323
2018-02-04T23:56:55.506Z,93325
2018-02-04T23:59:21.948Z,93335
